Coral Lacera — D5ES2 — position and weather

sailwx.info

Track history (hours):
 
Tides and Currents Weather Stations Pressure Air Temp Water Temp Dewpoint Dewpoint Depression Visibility Wind Speed Wind Dir Waves Ship Positions

Coral Lacera

Last reported at 2018-Jul-16 23:30 UTC. Time now 2018-Jul-17 00:04 UTC.
Position N 57°57' E 011°42'.

Length 109 m; draft 6.9 m.

Type: Ship (hazmat cat A). MMSI: 636016149.

Date/timePositionNaut miles runAvg speedWind from/ knotsBaromVisibWave heightAir tempDewpointWater temp
2018-Jul-16 23:30N 57°57' E 011°42'510.7
2018-Jul-16 23:00N 58°02' E 011°47'4 6.8
2018-Jul-16 22:26N 58°05' E 011°49'0 0.0
2018-Jul-16 19:56N 58°05' E 011°49'0 0.0
2018-Jul-16 19:11N 58°05' E 011°49'0 0.0
2018-Jul-16 18:20N 58°05' E 011°49'0 0.0
2018-Jul-16 17:53N 58°05' E 011°49'0 0.0
2018-Jul-16 17:08N 58°05' E 011°49'0 0.0
2018-Jul-16 16:47N 58°05' E 011°49'0 0.0
2018-Jul-16 16:05N 58°05' E 011°49'0 0.0
2018-Jul-16 15:59N 58°05' E 011°49'0 0.0
2018-Jul-16 15:05N 58°05' E 011°49'0 0.0
2018-Jul-16 14:59N 58°05' E 011°49'0 0.0
2018-Jul-16 14:26N 58°05' E 011°49'0 0.0
2018-Jul-16 13:56N 58°05' E 011°49'0 0.0
2018-Jul-16 13:29N 58°05' E 011°49'0 0.0
2018-Jul-16 12:56N 58°05' E 011°49'0 0.0
2018-Jul-16 12:20N 58°05' E 011°49'0 0.0
2018-Jul-16 11:56N 58°05' E 011°49'0 0.0
2018-Jul-16 06:56N 58°05' E 011°49'0 0.1
2018-Jul-16 06:30N 58°05' E 011°49'2 4.6
2018-Jul-16 06:00N 58°03' E 011°47'510.0
2018-Jul-16 05:30N 57°59' E 011°44'510.2
2018-Jul-16 05:00N 57°55' E 011°37'4 9.0
2018-Jul-16 04:30N 57°53' E 011°30'510.4
2018-Jul-16 04:01N 57°55' E 011°21'1 2.0
2018-Jul-16 03:30N 57°56' E 011°20'0 0.0
2018-Jul-16 03:00N 57°56' E 011°20'0 0.0
2018-Jul-16 02:30N 57°56' E 011°20'0 0.0
2018-Jul-16 02:00N 57°56' E 011°20'0 0.0
2018-Jul-16 01:30N 57°56' E 011°20'0 0.0
2018-Jul-16 01:00N 57°56' E 011°20'0 0.0
2018-Jul-16 00:30N 57°56' E 011°20'0 0.0
2018-Jul-15 23:57N 57°56' E 011°20'0 0.0
2018-Jul-15 23:30N 57°56' E 011°20'0 0.0
2018-Jul-15 23:00N 57°56' E 011°20'0 0.0
2018-Jul-15 22:30N 57°56' E 011°20'0 0.0
2018-Jul-15 22:00N 57°56' E 011°20'0 0.0
2018-Jul-15 21:30N 57°56' E 011°20'0 0.0
2018-Jul-15 21:00N 57°56' E 011°20'0 0.0
2018-Jul-15 20:30N 57°56' E 011°20'0 0.0
2018-Jul-15 19:57N 57°56' E 011°20'0 0.0
2018-Jul-15 19:30N 57°56' E 011°20'0 0.0
2018-Jul-15 19:00N 57°56' E 011°20'0 0.0
2018-Jul-15 18:30N 57°56' E 011°20'0 0.0
2018-Jul-15 17:57N 57°56' E 011°20'0 0.0
2018-Jul-15 17:30N 57°56' E 011°20'0 0.0
2018-Jul-15 17:00N 57°56' E 011°20'0 0.0
2018-Jul-15 16:30N 57°56' E 011°20'0 0.0
2018-Jul-15 16:00N 57°56' E 011°20'0 0.0
2018-Jul-15 15:30N 57°56' E 011°20'0 0.0
2018-Jul-15 15:00N 57°56' E 011°20'0 0.0
2018-Jul-15 14:24N 57°56' E 011°21'0 0.0
2018-Jul-15 14:00N 57°56' E 011°21'0 0.0
2018-Jul-15 13:30N 57°56' E 011°21'0 0.0
2018-Jul-15 13:00N 57°56' E 011°21'0 0.0
2018-Jul-15 12:30N 57°56' E 011°21'1 1.4
2018-Jul-15 12:00N 57°55' E 011°19'715.0
2018-Jul-15 11:30N 57°53' E 011°06'816.9
2018-Jul-15 11:00N 57°51' E 010°50'917.3
2018-Jul-15 10:30N 57°50' E 010°34'816.6
2018-Jul-15 10:00N 57°48' E 010°20'917.2
2018-Jul-15 09:30N 57°44' E 010°05'816.8
2018-Jul-15 09:00N 57°40' E 009°51'816.3
2018-Jul-15 08:30N 57°36' E 009°38'815.9
2018-Jul-15 08:00N 57°32' E 009°24'815.6
2018-Jul-15 07:30N 57°28' E 009°11'3315.7
2018-Jul-15 05:24N 57°13' E 008°17'20115.0
2018-Jul-14 15:56N 53°53' E 007°46'714.8
2018-Jul-14 15:28N 53°49' E 007°56'817.5
2018-Jul-14 15:00N 53°43' E 008°04'4 8.5
2018-Jul-14 14:30N 53°39' E 008°06'0 0.0
2018-Jul-14 13:21N 53°39' E 008°06'0 0.0
2018-Jul-14 12:54N 53°39' E 008°06'0 0.0
2018-Jul-14 12:30N 53°39' E 008°06'0 0.0
2018-Jul-14 12:00N 53°39' E 008°06'0 0.0
2018-Jul-14 11:27N 53°39' E 008°06'0 0.0
2018-Jul-14 11:00N 53°39' E 008°06'0 0.0
2018-Jul-14 10:27N 53°39' E 008°06'0 0.0
2018-Jul-14 09:57N 53°39' E 008°06'0 0.0
2018-Jul-14 09:27N 53°39' E 008°06'0 0.0
2018-Jul-14 08:57N 53°39' E 008°06'0 0.0
2018-Jul-14 08:21N 53°39' E 008°06'0 0.0
2018-Jul-14 07:56N 53°39' E 008°06'0 0.0
2018-Jul-14 07:30N 53°39' E 008°06'0 0.0
2018-Jul-14 06:56N 53°39' E 008°06'0 0.0
2018-Jul-14 06:29N 53°39' E 008°06'0 0.0
2018-Jul-14 05:06N 53°39' E 008°06'0 0.0
2018-Jul-14 04:47N 53°39' E 008°06'0 0.0
2018-Jul-14 03:20N 53°39' E 008°06'0 0.0
2018-Jul-14 02:59N 53°39' E 008°06'0 0.0
2018-Jul-13 19:24N 53°39' E 008°06'1 2.9
2018-Jul-13 19:00N 53°40' E 008°06'613.0
2018-Jul-13 18:30N 53°46' E 008°03'610.9
2018-Jul-13 18:00N 53°49' E 007°55'7 0.5
2018-Jul-13 02:35N 53°54' E 007°47'0 0.1
2018-Jul-12 23:02N 53°54' E 007°47'0 0.1
2018-Jul-12 22:50N 53°54' E 007°47'0 0.0
2018-Jul-12 19:14N 53°54' E 007°47'0 0.0
2018-Jul-12 17:59N 53°54' E 007°47'0 0.0
2018-Jul-12 17:26N 53°54' E 007°47'0 0.0
2018-Jul-12 16:44N 53°54' E 007°47'0 0.1
2018-Jul-12 16:14N 53°54' E 007°47'0 1.5
2018-Jul-12 16:00N 53°54' E 007°46'713.3
2018-Jul-12 15:31N 53°58' E 007°38'815.1
2018-Jul-12 15:00N 54°04' E 007°31'715.0
2018-Jul-12 14:30N 54°11' E 007°26'815.2
2018-Jul-12 14:00N 54°19' E 007°25'815.0
2018-Jul-12 13:30N 54°26' E 007°25'815.0
2018-Jul-12 12:59N 54°34' E 007°25'2315.0
2018-Jul-12 11:28N 54°57' E 007°23'1515.3
2018-Jul-12 10:28N 55°12' E 007°23'715.7
2018-Jul-12 10:00N 55°20' E 007°23'916.1
2018-Jul-12 09:26N 55°29' E 007°22'716.5
2018-Jul-12 09:00N 55°36' E 007°21'15615.4
2018-Jul-11 22:51N 58°04' E 008°49'616.5
2018-Jul-11 22:30N 58°08' E 008°56'2316.1
2018-Jul-11 21:05N 58°26' E 009°25'116.1
2018-Jul-11 21:00N 58°27' E 009°26'816.2
2018-Jul-11 20:30N 58°33' E 009°36'816.1
2018-Jul-11 19:59N 58°41' E 009°41'816.5
2018-Jul-11 19:30N 58°49' E 009°44'815.6
2018-Jul-11 19:00N 58°56' E 009°47'510.2
2018-Jul-11 18:30N 59°01' E 009°45'4 8.2
2018-Jul-11 18:01N 59°04' E 009°39'2 3.8
2018-Jul-11 17:25N 59°06' E 009°36'0 0.0
2018-Jul-11 16:58N 59°06' E 009°36'0 0.0
2018-Jul-11 16:28N 59°06' E 009°36'0 0.0
2018-Jul-11 15:58N 59°06' E 009°36'0 0.0
2018-Jul-11 15:28N 59°06' E 009°36'0 0.0
2018-Jul-11 14:58N 59°06' E 009°36'0 0.0
2018-Jul-11 14:28N 59°06' E 009°36'0 0.0
2018-Jul-11 13:58N 59°06' E 009°36'0 0.0
2018-Jul-11 13:28N 59°06' E 009°36'0 0.0
2018-Jul-11 12:58N 59°06' E 009°36'0 0.0
2018-Jul-11 12:28N 59°06' E 009°36'0 0.0
2018-Jul-11 11:58N 59°06' E 009°36'0 0.0
2018-Jul-11 11:28N 59°06' E 009°36'0 0.0
2018-Jul-11 10:58N 59°06' E 009°36'0 0.0
2018-Jul-11 10:28N 59°06' E 009°36'0 0.0
2018-Jul-11 09:58N 59°06' E 009°36'0 0.0
2018-Jul-11 09:28N 59°06' E 009°36'0 0.0
2018-Jul-11 08:58N 59°06' E 009°36'0 0.0
2018-Jul-11 08:28N 59°06' E 009°36'0 0.0
2018-Jul-11 07:58N 59°06' E 009°36'0 0.0
2018-Jul-11 07:28N 59°06' E 009°36'0 0.0
2018-Jul-11 06:58N 59°06' E 009°36'0 0.0
2018-Jul-11 06:28N 59°06' E 009°36'0 0.0
2018-Jul-11 05:58N 59°06' E 009°36'0 0.0
2018-Jul-11 05:28N 59°06' E 009°36'0 0.0
2018-Jul-11 04:58N 59°06' E 009°36'0 0.0
2018-Jul-11 04:28N 59°06' E 009°36'0 0.0
2018-Jul-11 03:58N 59°06' E 009°36'0 0.0
2018-Jul-11 03:28N 59°06' E 009°36'0 0.0
2018-Jul-11 02:58N 59°06' E 009°36'0 0.0
2018-Jul-11 02:28N 59°06' E 009°36'0 0.0
2018-Jul-11 01:58N 59°06' E 009°36'0 0.0
2018-Jul-11 01:28N 59°06' E 009°36'0 0.0
2018-Jul-11 00:58N 59°06' E 009°36'0 0.0
2018-Jul-11 00:28N 59°06' E 009°36'0 0.0
2018-Jul-10 23:55N 59°06' E 009°36'0 0.0
2018-Jul-10 23:28N 59°06' E 009°36'0 0.0
2018-Jul-10 22:58N 59°06' E 009°36'0 0.0
2018-Jul-10 22:28N 59°06' E 009°36'0 0.0
2018-Jul-10 21:58N 59°06' E 009°36'0 0.0
2018-Jul-10 21:28N 59°06' E 009°36'0 0.0
2018-Jul-10 20:58N 59°06' E 009°36'0 0.0
2018-Jul-10 20:28N 59°06' E 009°36'0 0.0
2018-Jul-10 19:58N 59°06' E 009°36'0 0.0
2018-Jul-10 19:28N 59°06' E 009°36'0 0.1
2018-Jul-10 19:00N 59°06' E 009°36'3 6.7
2018-Jul-10 18:29N 59°03' E 009°40'4 7.7
2018-Jul-10 18:00N 59°02' E 009°47'3 5.6
2018-Jul-10 17:29N 58°59' E 009°48'2 4.2
2018-Jul-10 17:00N 58°57' E 009°48'510.0
2018-Jul-10 16:30N 58°52' E 009°47'510.1
2018-Jul-10 16:00N 58°47' E 009°46'1 1.9
2018-Jul-10 15:28N 58°46' E 009°47'1 1.2
2018-Jul-10 14:58N 58°46' E 009°48'1 1.2
2018-Jul-10 14:28N 58°46' E 009°49'1 1.5
2018-Jul-10 13:58N 58°47' E 009°50'1 1.3
2018-Jul-10 13:28N 58°47' E 009°51'1 1.3
2018-Jul-10 12:59N 58°48' E 009°51'510.0
2018-Jul-10 12:30N 58°44' E 009°46'1813.6
2018-Jul-10 11:10N 58°26' E 009°38'614.3
2018-Jul-10 10:44N 58°21' E 009°30'514.2
2018-Jul-10 10:21N 58°17' E 009°24'1013.5
2018-Jul-10 09:37N 58°10' E 009°11'514.5
2018-Jul-10 09:16N 58°06' E 009°05'24712.2
2018-Jul-09 13:01N 54°01' E 008°08'114.0
2018-Jul-09 12:58N 54°00' E 008°09'612.1
2018-Jul-09 12:30N 53°60' E 008°19'917.5
2018-Jul-09 12:00N 53°58' E 008°33'917.1
2018-Jul-09 11:29N 53°52' E 008°44'815.7
2018-Jul-09 11:00N 53°51' E 008°57'815.3
2018-Jul-09 10:30N 53°53' E 009°09'510.2
2018-Jul-09 10:00N 53°52' E 009°18'612.3
2018-Jul-09 09:30N 53°47' E 009°23'510.4
2018-Jul-09 09:00N 53°43' E 009°29'4 7.7
2018-Jul-09 08:30N 53°39' E 009°31'0 0.1
2018-Jul-09 07:56N 53°39' E 009°31'0 0.0
2018-Jul-09 07:26N 53°39' E 009°31'0 0.0
2018-Jul-09 06:50N 53°39' E 009°31'0 0.0
2018-Jul-09 06:26N 53°39' E 009°31'0 0.0
2018-Jul-09 05:50N 53°39' E 009°31'0 0.0
2018-Jul-09 05:26N 53°39' E 009°31'0 0.0
2018-Jul-09 04:56N 53°39' E 009°31'0 0.0
2018-Jul-09 04:26N 53°39' E 009°31'0 0.0
2018-Jul-09 03:56N 53°39' E 009°31'0 0.0
2018-Jul-09 03:14N 53°39' E 009°31'0 0.0
2018-Jul-09 02:56N 53°39' E 009°31'0 0.0
2018-Jul-09 02:26N 53°39' E 009°31'0 0.0
2018-Jul-09 01:56N 53°39' E 009°31'0 0.0
2018-Jul-09 01:26N 53°39' E 009°31'0 0.0
2018-Jul-09 00:56N 53°39' E 009°31'0 0.0
2018-Jul-09 00:26N 53°39' E 009°31'0 0.0
2018-Jul-08 23:56N 53°39' E 009°31'0 0.0
2018-Jul-08 23:20N 53°39' E 009°31'0 0.0
2018-Jul-08 22:50N 53°39' E 009°31'0 0.0
2018-Jul-08 22:26N 53°39' E 009°31'0 0.0
2018-Jul-08 21:50N 53°39' E 009°31'0 0.0
2018-Jul-08 21:26N 53°39' E 009°31'0 0.0
2018-Jul-08 20:56N 53°39' E 009°31'0 0.0
2018-Jul-08 20:26N 53°39' E 009°31'0 0.0
2018-Jul-08 19:56N 53°39' E 009°31'0 0.0
2018-Jul-08 19:26N 53°39' E 009°31'0 0.0
2018-Jul-08 18:56N 53°39' E 009°31'0 0.0
2018-Jul-08 18:26N 53°39' E 009°31'0 0.0
2018-Jul-08 17:56N 53°39' E 009°31'0 0.0
2018-Jul-08 17:20N 53°39' E 009°31'0 0.0
2018-Jul-08 16:56N 53°39' E 009°31'0 0.0
2018-Jul-08 16:26N 53°39' E 009°31'0 0.0
2018-Jul-08 15:56N 53°39' E 009°31'0 0.0
2018-Jul-08 15:26N 53°39' E 009°31'0 0.0
2018-Jul-08 14:50N 53°39' E 009°31'0 0.0
2018-Jul-08 14:26N 53°39' E 009°31'0 0.0
2018-Jul-08 13:50N 53°39' E 009°31'0 0.0
2018-Jul-08 13:26N 53°39' E 009°31'0 0.0
2018-Jul-08 12:56N 53°39' E 009°31'0 0.0
2018-Jul-08 12:26N 53°39' E 009°31'0 0.0
2018-Jul-08 11:56N 53°39' E 009°31'0 0.0
2018-Jul-08 11:26N 53°39' E 009°31'0 0.0
2018-Jul-08 10:56N 53°39' E 009°31'0 0.0
2018-Jul-08 10:20N 53°39' E 009°31'0 0.0
2018-Jul-08 09:56N 53°39' E 009°31'0 0.0
2018-Jul-08 09:26N 53°39' E 009°31'0 0.0
2018-Jul-08 08:56N 53°39' E 009°31'0 0.0
2018-Jul-08 08:26N 53°39' E 009°31'0 0.0
2018-Jul-08 07:56N 53°39' E 009°31'0 0.0
2018-Jul-08 07:26N 53°39' E 009°31'0 0.0
2018-Jul-08 06:50N 53°39' E 009°31'0 0.0
2018-Jul-08 06:26N 53°39' E 009°31'0 0.0
2018-Jul-08 05:50N 53°39' E 009°31'0 0.0
2018-Jul-08 05:26N 53°39' E 009°31'0 0.0
2018-Jul-08 05:01N 53°39' E 009°31'0 0.4
2018-Jul-08 04:30N 53°39' E 009°31'2 4.1
2018-Jul-08 04:01N 53°41' E 009°30'3 5.8
2018-Jul-08 03:31N 53°43' E 009°28'3 6.4
2018-Jul-08 03:00N 53°46' E 009°24'3 6.4
2018-Jul-08 02:31N 53°49' E 009°22'4 7.2
2018-Jul-08 02:01N 53°52' E 009°18'4 7.5
2018-Jul-08 01:31N 53°53' E 009°12'2 4.7
2018-Jul-08 01:00N 53°53' E 009°08'0 0.6
2018-Jul-08 00:30N 53°54' E 009°09'3 5.3
2018-Jul-08 00:00N 53°56' E 009°12'4 8.9
2018-Jul-07 23:30N 53°59' E 009°17'4 8.8
2018-Jul-07 23:01N 54°03' E 009°18'4 8.9
2018-Jul-07 22:31N 54°08' E 009°20'4 8.6
2018-Jul-07 22:01N 54°10' E 009°26'4 8.7
2018-Jul-07 21:30N 54°12' E 009°33'4 8.1
2018-Jul-07 21:01N 54°15' E 009°37'4 7.5
2018-Jul-07 20:30N 54°18' E 009°41'4 8.2
2018-Jul-07 20:01N 54°21' E 009°46'4 7.9
2018-Jul-07 19:29N 54°21' E 009°53'4 8.1
2018-Jul-07 19:01N 54°21' E 009°59'3 4.9
2018-Jul-07 18:28N 54°22' E 010°04'  
Track history (hours):
 
Tides and Currents Weather Stations Pressure Air Temp Water Temp Dewpoint Dewpoint Depression Visibility Wind Speed Wind Dir Waves Ship Positions

Coral Lacera

Last reported at 2018-Jul-16 23:30 UTC. Time now 2018-Jul-17 00:04 UTC.
Position N 57°57' E 011°42'.

Length 109 m; draft 6.9 m.

Type: Ship (hazmat cat A). MMSI: 636016149.

Date/timePositionNaut miles runAvg speedWind from/ knotsBaromVisibWave heightAir tempDewpointWater temp
2018-Jul-16 23:30N 57°57' E 011°42'510.7
2018-Jul-16 23:00N 58°02' E 011°47'4 6.8
2018-Jul-16 22:26N 58°05' E 011°49'0 0.0
2018-Jul-16 19:56N 58°05' E 011°49'0 0.0
2018-Jul-16 19:11N 58°05' E 011°49'0 0.0
2018-Jul-16 18:20N 58°05' E 011°49'0 0.0
2018-Jul-16 17:53N 58°05' E 011°49'0 0.0
2018-Jul-16 17:08N 58°05' E 011°49'0 0.0
2018-Jul-16 16:47N 58°05' E 011°49'0 0.0
2018-Jul-16 16:05N 58°05' E 011°49'0 0.0
2018-Jul-16 15:59N 58°05' E 011°49'0 0.0
2018-Jul-16 15:05N 58°05' E 011°49'0 0.0
2018-Jul-16 14:59N 58°05' E 011°49'0 0.0
2018-Jul-16 14:26N 58°05' E 011°49'0 0.0
2018-Jul-16 13:56N 58°05' E 011°49'0 0.0
2018-Jul-16 13:29N 58°05' E 011°49'0 0.0
2018-Jul-16 12:56N 58°05' E 011°49'0 0.0
2018-Jul-16 12:20N 58°05' E 011°49'0 0.0
2018-Jul-16 11:56N 58°05' E 011°49'0 0.0
2018-Jul-16 06:56N 58°05' E 011°49'0 0.1
2018-Jul-16 06:30N 58°05' E 011°49'2 4.6
2018-Jul-16 06:00N 58°03' E 011°47'510.0
2018-Jul-16 05:30N 57°59' E 011°44'510.2
2018-Jul-16 05:00N 57°55' E 011°37'4 9.0
2018-Jul-16 04:30N 57°53' E 011°30'510.4
2018-Jul-16 04:01N 57°55' E 011°21'1 2.0
2018-Jul-16 03:30N 57°56' E 011°20'0 0.0
2018-Jul-16 03:00N 57°56' E 011°20'0 0.0
2018-Jul-16 02:30N 57°56' E 011°20'0 0.0
2018-Jul-16 02:00N 57°56' E 011°20'0 0.0
2018-Jul-16 01:30N 57°56' E 011°20'0 0.0
2018-Jul-16 01:00N 57°56' E 011°20'0 0.0
2018-Jul-16 00:30N 57°56' E 011°20'0 0.0
2018-Jul-15 23:57N 57°56' E 011°20'0 0.0
2018-Jul-15 23:30N 57°56' E 011°20'0 0.0
2018-Jul-15 23:00N 57°56' E 011°20'0 0.0
2018-Jul-15 22:30N 57°56' E 011°20'0 0.0
2018-Jul-15 22:00N 57°56' E 011°20'0 0.0
2018-Jul-15 21:30N 57°56' E 011°20'0 0.0
2018-Jul-15 21:00N 57°56' E 011°20'0 0.0
2018-Jul-15 20:30N 57°56' E 011°20'0 0.0
2018-Jul-15 19:57N 57°56' E 011°20'0 0.0
2018-Jul-15 19:30N 57°56' E 011°20'0 0.0
2018-Jul-15 19:00N 57°56' E 011°20'0 0.0
2018-Jul-15 18:30N 57°56' E 011°20'0 0.0
2018-Jul-15 17:57N 57°56' E 011°20'0 0.0
2018-Jul-15 17:30N 57°56' E 011°20'0 0.0
2018-Jul-15 17:00N 57°56' E 011°20'0 0.0
2018-Jul-15 16:30N 57°56' E 011°20'0 0.0
2018-Jul-15 16:00N 57°56' E 011°20'0 0.0
2018-Jul-15 15:30N 57°56' E 011°20'0 0.0
2018-Jul-15 15:00N 57°56' E 011°20'0 0.0
2018-Jul-15 14:24N 57°56' E 011°21'0 0.0
2018-Jul-15 14:00N 57°56' E 011°21'0 0.0
2018-Jul-15 13:30N 57°56' E 011°21'0 0.0
2018-Jul-15 13:00N 57°56' E 011°21'0 0.0
2018-Jul-15 12:30N 57°56' E 011°21'1 1.4
2018-Jul-15 12:00N 57°55' E 011°19'715.0
2018-Jul-15 11:30N 57°53' E 011°06'816.9
2018-Jul-15 11:00N 57°51' E 010°50'917.3
2018-Jul-15 10:30N 57°50' E 010°34'816.6
2018-Jul-15 10:00N 57°48' E 010°20'917.2
2018-Jul-15 09:30N 57°44' E 010°05'816.8
2018-Jul-15 09:00N 57°40' E 009°51'816.3
2018-Jul-15 08:30N 57°36' E 009°38'815.9
2018-Jul-15 08:00N 57°32' E 009°24'815.6
2018-Jul-15 07:30N 57°28' E 009°11'3315.7
2018-Jul-15 05:24N 57°13' E 008°17'20115.0
2018-Jul-14 15:56N 53°53' E 007°46'714.8
2018-Jul-14 15:28N 53°49' E 007°56'817.5
2018-Jul-14 15:00N 53°43' E 008°04'4 8.5
2018-Jul-14 14:30N 53°39' E 008°06'0 0.0
2018-Jul-14 13:21N 53°39' E 008°06'0 0.0
2018-Jul-14 12:54N 53°39' E 008°06'0 0.0
2018-Jul-14 12:30N 53°39' E 008°06'0 0.0
2018-Jul-14 12:00N 53°39' E 008°06'0 0.0
2018-Jul-14 11:27N 53°39' E 008°06'0 0.0
2018-Jul-14 11:00N 53°39' E 008°06'0 0.0
2018-Jul-14 10:27N 53°39' E 008°06'0 0.0
2018-Jul-14 09:57N 53°39' E 008°06'0 0.0
2018-Jul-14 09:27N 53°39' E 008°06'0 0.0
2018-Jul-14 08:57N 53°39' E 008°06'0 0.0
2018-Jul-14 08:21N 53°39' E 008°06'0 0.0
2018-Jul-14 07:56N 53°39' E 008°06'0 0.0
2018-Jul-14 07:30N 53°39' E 008°06'0 0.0
2018-Jul-14 06:56N 53°39' E 008°06'0 0.0
2018-Jul-14 06:29N 53°39' E 008°06'0 0.0
2018-Jul-14 05:06N 53°39' E 008°06'0 0.0
2018-Jul-14 04:47N 53°39' E 008°06'0 0.0
2018-Jul-14 03:20N 53°39' E 008°06'0 0.0
2018-Jul-14 02:59N 53°39' E 008°06'0 0.0
2018-Jul-13 19:24N 53°39' E 008°06'1 2.9
2018-Jul-13 19:00N 53°40' E 008°06'613.0
2018-Jul-13 18:30N 53°46' E 008°03'610.9
2018-Jul-13 18:00N 53°49' E 007°55'7 0.5
2018-Jul-13 02:35N 53°54' E 007°47'0 0.1
2018-Jul-12 23:02N 53°54' E 007°47'0 0.1
2018-Jul-12 22:50N 53°54' E 007°47'0 0.0
2018-Jul-12 19:14N 53°54' E 007°47'0 0.0
2018-Jul-12 17:59N 53°54' E 007°47'0 0.0
2018-Jul-12 17:26N 53°54' E 007°47'0 0.0
2018-Jul-12 16:44N 53°54' E 007°47'0 0.1
2018-Jul-12 16:14N 53°54' E 007°47'0 1.5
2018-Jul-12 16:00N 53°54' E 007°46'713.3
2018-Jul-12 15:31N 53°58' E 007°38'815.1
2018-Jul-12 15:00N 54°04' E 007°31'715.0
2018-Jul-12 14:30N 54°11' E 007°26'815.2
2018-Jul-12 14:00N 54°19' E 007°25'815.0
2018-Jul-12 13:30N 54°26' E 007°25'815.0
2018-Jul-12 12:59N 54°34' E 007°25'2315.0
2018-Jul-12 11:28N 54°57' E 007°23'1515.3
2018-Jul-12 10:28N 55°12' E 007°23'715.7
2018-Jul-12 10:00N 55°20' E 007°23'916.1
2018-Jul-12 09:26N 55°29' E 007°22'716.5
2018-Jul-12 09:00N 55°36' E 007°21'15615.4
2018-Jul-11 22:51N 58°04' E 008°49'616.5
2018-Jul-11 22:30N 58°08' E 008°56'2316.1
2018-Jul-11 21:05N 58°26' E 009°25'116.1
2018-Jul-11 21:00N 58°27' E 009°26'816.2
2018-Jul-11 20:30N 58°33' E 009°36'816.1
2018-Jul-11 19:59N 58°41' E 009°41'816.5
2018-Jul-11 19:30N 58°49' E 009°44'815.6
2018-Jul-11 19:00N 58°56' E 009°47'510.2
2018-Jul-11 18:30N 59°01' E 009°45'4 8.2
2018-Jul-11 18:01N 59°04' E 009°39'2 3.8
2018-Jul-11 17:25N 59°06' E 009°36'0 0.0
2018-Jul-11 16:58N 59°06' E 009°36'0 0.0
2018-Jul-11 16:28N 59°06' E 009°36'0 0.0
2018-Jul-11 15:58N 59°06' E 009°36'0 0.0
2018-Jul-11 15:28N 59°06' E 009°36'0 0.0
2018-Jul-11 14:58N 59°06' E 009°36'0 0.0
2018-Jul-11 14:28N 59°06' E 009°36'0 0.0
2018-Jul-11 13:58N 59°06' E 009°36'0 0.0
2018-Jul-11 13:28N 59°06' E 009°36'0 0.0
2018-Jul-11 12:58N 59°06' E 009°36'0 0.0
2018-Jul-11 12:28N 59°06' E 009°36'0 0.0
2018-Jul-11 11:58N 59°06' E 009°36'0 0.0
2018-Jul-11 11:28N 59°06' E 009°36'0 0.0
2018-Jul-11 10:58N 59°06' E 009°36'0 0.0
2018-Jul-11 10:28N 59°06' E 009°36'0 0.0
2018-Jul-11 09:58N 59°06' E 009°36'0 0.0
2018-Jul-11 09:28N 59°06' E 009°36'0 0.0
2018-Jul-11 08:58N 59°06' E 009°36'0 0.0
2018-Jul-11 08:28N 59°06' E 009°36'0 0.0
2018-Jul-11 07:58N 59°06' E 009°36'0 0.0
2018-Jul-11 07:28N 59°06' E 009°36'0 0.0
2018-Jul-11 06:58N 59°06' E 009°36'0 0.0
2018-Jul-11 06:28N 59°06' E 009°36'0 0.0
2018-Jul-11 05:58N 59°06' E 009°36'0 0.0
2018-Jul-11 05:28N 59°06' E 009°36'0 0.0
2018-Jul-11 04:58N 59°06' E 009°36'0 0.0
2018-Jul-11 04:28N 59°06' E 009°36'0 0.0
2018-Jul-11 03:58N 59°06' E 009°36'0 0.0
2018-Jul-11 03:28N 59°06' E 009°36'0 0.0
2018-Jul-11 02:58N 59°06' E 009°36'0 0.0
2018-Jul-11 02:28N 59°06' E 009°36'0 0.0
2018-Jul-11 01:58N 59°06' E 009°36'0 0.0
2018-Jul-11 01:28N 59°06' E 009°36'0 0.0
2018-Jul-11 00:58N 59°06' E 009°36'0 0.0
2018-Jul-11 00:28N 59°06' E 009°36'0 0.0
2018-Jul-10 23:55N 59°06' E 009°36'0 0.0
2018-Jul-10 23:28N 59°06' E 009°36'0 0.0
2018-Jul-10 22:58N 59°06' E 009°36'0 0.0
2018-Jul-10 22:28N 59°06' E 009°36'0 0.0
2018-Jul-10 21:58N 59°06' E 009°36'0 0.0
2018-Jul-10 21:28N 59°06' E 009°36'0 0.0
2018-Jul-10 20:58N 59°06' E 009°36'0 0.0
2018-Jul-10 20:28N 59°06' E 009°36'0 0.0
2018-Jul-10 19:58N 59°06' E 009°36'0 0.0
2018-Jul-10 19:28N 59°06' E 009°36'0 0.1
2018-Jul-10 19:00N 59°06' E 009°36'3 6.7
2018-Jul-10 18:29N 59°03' E 009°40'4 7.7
2018-Jul-10 18:00N 59°02' E 009°47'3 5.6
2018-Jul-10 17:29N 58°59' E 009°48'2 4.2
2018-Jul-10 17:00N 58°57' E 009°48'510.0
2018-Jul-10 16:30N 58°52' E 009°47'510.1
2018-Jul-10 16:00N 58°47' E 009°46'1 1.9
2018-Jul-10 15:28N 58°46' E 009°47'1 1.2
2018-Jul-10 14:58N 58°46' E 009°48'1 1.2
2018-Jul-10 14:28N 58°46' E 009°49'1 1.5
2018-Jul-10 13:58N 58°47' E 009°50'1 1.3
2018-Jul-10 13:28N 58°47' E 009°51'1 1.3
2018-Jul-10 12:59N 58°48' E 009°51'510.0
2018-Jul-10 12:30N 58°44' E 009°46'1813.6
2018-Jul-10 11:10N 58°26' E 009°38'614.3
2018-Jul-10 10:44N 58°21' E 009°30'514.2
2018-Jul-10 10:21N 58°17' E 009°24'1013.5
2018-Jul-10 09:37N 58°10' E 009°11'514.5
2018-Jul-10 09:16N 58°06' E 009°05'24712.2
2018-Jul-09 13:01N 54°01' E 008°08'114.0
2018-Jul-09 12:58N 54°00' E 008°09'612.1
2018-Jul-09 12:30N 53°60' E 008°19'917.5
2018-Jul-09 12:00N 53°58' E 008°33'917.1
2018-Jul-09 11:29N 53°52' E 008°44'815.7
2018-Jul-09 11:00N 53°51' E 008°57'815.3
2018-Jul-09 10:30N 53°53' E 009°09'510.2
2018-Jul-09 10:00N 53°52' E 009°18'612.3
2018-Jul-09 09:30N 53°47' E 009°23'510.4
2018-Jul-09 09:00N 53°43' E 009°29'4 7.7
2018-Jul-09 08:30N 53°39' E 009°31'0 0.1
2018-Jul-09 07:56N 53°39' E 009°31'0 0.0
2018-Jul-09 07:26N 53°39' E 009°31'0 0.0
2018-Jul-09 06:50N 53°39' E 009°31'0 0.0
2018-Jul-09 06:26N 53°39' E 009°31'0 0.0
2018-Jul-09 05:50N 53°39' E 009°31'0 0.0
2018-Jul-09 05:26N 53°39' E 009°31'0 0.0
2018-Jul-09 04:56N 53°39' E 009°31'0 0.0
2018-Jul-09 04:26N 53°39' E 009°31'0 0.0
2018-Jul-09 03:56N 53°39' E 009°31'0 0.0
2018-Jul-09 03:14N 53°39' E 009°31'0 0.0
2018-Jul-09 02:56N 53°39' E 009°31'0 0.0
2018-Jul-09 02:26N 53°39' E 009°31'0 0.0
2018-Jul-09 01:56N 53°39' E 009°31'0 0.0
2018-Jul-09 01:26N 53°39' E 009°31'0 0.0
2018-Jul-09 00:56N 53°39' E 009°31'0 0.0
2018-Jul-09 00:26N 53°39' E 009°31'0 0.0
2018-Jul-08 23:56N 53°39' E 009°31'0 0.0
2018-Jul-08 23:20N 53°39' E 009°31'0 0.0
2018-Jul-08 22:50N 53°39' E 009°31'0 0.0
2018-Jul-08 22:26N 53°39' E 009°31'0 0.0
2018-Jul-08 21:50N 53°39' E 009°31'0 0.0
2018-Jul-08 21:26N 53°39' E 009°31'0 0.0
2018-Jul-08 20:56N 53°39' E 009°31'0 0.0
2018-Jul-08 20:26N 53°39' E 009°31'0 0.0
2018-Jul-08 19:56N 53°39' E 009°31'0 0.0
2018-Jul-08 19:26N 53°39' E 009°31'0 0.0
2018-Jul-08 18:56N 53°39' E 009°31'0 0.0
2018-Jul-08 18:26N 53°39' E 009°31'0 0.0
2018-Jul-08 17:56N 53°39' E 009°31'0 0.0
2018-Jul-08 17:20N 53°39' E 009°31'0 0.0
2018-Jul-08 16:56N 53°39' E 009°31'0 0.0
2018-Jul-08 16:26N 53°39' E 009°31'0 0.0
2018-Jul-08 15:56N 53°39' E 009°31'0 0.0
2018-Jul-08 15:26N 53°39' E 009°31'0 0.0
2018-Jul-08 14:50N 53°39' E 009°31'0 0.0
2018-Jul-08 14:26N 53°39' E 009°31'0 0.0
2018-Jul-08 13:50N 53°39' E 009°31'0 0.0
2018-Jul-08 13:26N 53°39' E 009°31'0 0.0
2018-Jul-08 12:56N 53°39' E 009°31'0 0.0
2018-Jul-08 12:26N 53°39' E 009°31'0 0.0
2018-Jul-08 11:56N 53°39' E 009°31'0 0.0
2018-Jul-08 11:26N 53°39' E 009°31'0 0.0
2018-Jul-08 10:56N 53°39' E 009°31'0 0.0
2018-Jul-08 10:20N 53°39' E 009°31'0 0.0
2018-Jul-08 09:56N 53°39' E 009°31'0 0.0
2018-Jul-08 09:26N 53°39' E 009°31'0 0.0
2018-Jul-08 08:56N 53°39' E 009°31'0 0.0
2018-Jul-08 08:26N 53°39' E 009°31'0 0.0
2018-Jul-08 07:56N 53°39' E 009°31'0 0.0
2018-Jul-08 07:26N 53°39' E 009°31'0 0.0
2018-Jul-08 06:50N 53°39' E 009°31'0 0.0
2018-Jul-08 06:26N 53°39' E 009°31'0 0.0
2018-Jul-08 05:50N 53°39' E 009°31'0 0.0
2018-Jul-08 05:26N 53°39' E 009°31'0 0.0
2018-Jul-08 05:01N 53°39' E 009°31'0 0.4
2018-Jul-08 04:30N 53°39' E 009°31'2 4.1
2018-Jul-08 04:01N 53°41' E 009°30'3 5.8
2018-Jul-08 03:31N 53°43' E 009°28'3 6.4
2018-Jul-08 03:00N 53°46' E 009°24'3 6.4
2018-Jul-08 02:31N 53°49' E 009°22'4 7.2
2018-Jul-08 02:01N 53°52' E 009°18'4 7.5
2018-Jul-08 01:31N 53°53' E 009°12'2 4.7
2018-Jul-08 01:00N 53°53' E 009°08'0 0.6
2018-Jul-08 00:30N 53°54' E 009°09'3 5.3
2018-Jul-08 00:00N 53°56' E 009°12'4 8.9
2018-Jul-07 23:30N 53°59' E 009°17'4 8.8
2018-Jul-07 23:01N 54°03' E 009°18'4 8.9
2018-Jul-07 22:31N 54°08' E 009°20'4 8.6
2018-Jul-07 22:01N 54°10' E 009°26'4 8.7
2018-Jul-07 21:30N 54°12' E 009°33'4 8.1
2018-Jul-07 21:01N 54°15' E 009°37'4 7.5
2018-Jul-07 20:30N 54°18' E 009°41'4 8.2
2018-Jul-07 20:01N 54°21' E 009°46'4 7.9
2018-Jul-07 19:29N 54°21' E 009°53'4 8.1
2018-Jul-07 19:01N 54°21' E 009°59'3 4.9
2018-Jul-07 18:28N 54°22' E 010°04'  

Dump ship's entire track history